createdAt,value
2022-09-12T00:00:28.836Z,14.10
2022-09-12T00:02:55.846Z,13.95
2022-09-12T00:05:22.690Z,15.70
2022-09-12T00:07:49.766Z,14.10
2022-09-12T00:10:16.793Z,14.13
2022-09-12T00:12:44.935Z,14.23
2022-09-12T00:15:11.967Z,14.23
2022-09-12T00:17:39.036Z,14.63
2022-09-12T00:20:08.647Z,13.95
2022-09-12T00:22:37.288Z,14.80
2022-09-12T00:25:04.879Z,13.95
2022-09-12T00:27:31.583Z,14.80
2022-09-12T00:29:59.647Z,13.35
2022-09-12T00:32:26.445Z,15.93
2022-09-12T00:34:53.111Z,15.30
2022-09-12T00:37:19.846Z,14.52
2022-09-12T00:39:46.690Z,14.60
2022-09-12T00:42:13.418Z,14.70
2022-09-12T00:44:46.645Z,14.40
2022-09-12T00:47:19.288Z,14.32
2022-09-12T00:49:49.676Z,14.82
2022-09-12T00:52:20.988Z,15.23
2022-09-12T00:54:50.175Z,16.08
2022-09-12T00:57:18.381Z,16.70
2022-09-12T00:59:47.941Z,15.95
2022-09-12T01:02:16.839Z,16.63
2022-09-12T01:04:44.636Z,15.45
2022-09-12T01:07:12.017Z,15.13
2022-09-12T01:09:39.320Z,16.90
2022-09-12T01:12:06.293Z,17.30
2022-09-12T01:14:33.110Z,16.40
2022-09-12T01:16:59.793Z,16.27
2022-09-12T01:19:51.366Z,16.13
2022-09-12T01:22:28.690Z,15.93
2022-09-12T01:25:02.194Z,17.00
2022-09-12T01:27:41.015Z,18.00
2022-09-12T01:30:40.262Z,17.25
2022-09-12T01:33:25.324Z,16.45
2022-09-12T01:36:01.714Z,17.65
2022-09-12T01:38:31.801Z,16.17
2022-09-12T01:41:02.642Z,17.08
2022-09-12T01:43:33.050Z,18.27
2022-09-12T01:46:03.692Z,18.38
2022-09-12T01:48:35.909Z,18.13
2022-09-12T01:51:07.773Z,18.60
2022-09-12T01:53:38.610Z,16.92
2022-09-12T01:56:08.948Z,17.05
2022-09-12T01:58:39.902Z,16.73
2022-09-12T02:01:10.617Z,17.90
2022-09-12T02:03:44.737Z,16.85
2022-09-12T02:06:16.703Z,17.08
2022-09-12T02:08:45.675Z,17.02
2022-09-12T02:11:13.214Z,18.90
2022-09-12T02:13:42.259Z,18.08
2022-09-12T02:16:12.926Z,17.48
2022-09-12T02:18:45.312Z,16.38
2022-09-12T02:21:12.294Z,17.02
2022-09-12T02:23:41.720Z,17.13
2022-09-12T02:26:12.526Z,17.20
2022-09-12T02:28:41.830Z,17.80
2022-09-12T02:31:14.436Z,16.42
2022-09-12T02:33:49.362Z,17.00
2022-09-12T02:36:25.752Z,18.13
2022-09-12T02:38:53.095Z,17.45
2022-09-12T02:41:20.892Z,18.13
2022-09-12T02:43:49.325Z,17.58
2022-09-12T02:46:19.854Z,17.02
2022-09-12T02:48:47.922Z,17.40
2022-09-12T02:51:14.954Z,16.08
2022-09-12T02:53:42.056Z,17.95
2022-09-12T02:56:17.356Z,18.13
2022-09-12T02:58:44.481Z,17.33
2022-09-12T03:01:14.974Z,17.45
2022-09-12T03:03:58.647Z,17.70
2022-09-12T03:06:31.050Z,17.02
2022-09-12T03:09:01.460Z,18.27
2022-09-12T03:11:39.153Z,18.48
2022-09-12T03:14:16.062Z,17.92
2022-09-12T03:16:47.237Z,18.73
2022-09-12T03:19:21.829Z,18.77
2022-09-12T03:21:55.335Z,18.38
2022-09-12T03:24:26.547Z,18.55
2022-09-12T03:26:55.860Z,19.02
2022-09-12T03:29:23.141Z,17.77
2022-09-12T03:31:52.102Z,18.30
2022-09-12T03:34:21.234Z,18.08
2022-09-12T03:36:48.642Z,17.25
2022-09-12T03:39:15.345Z,17.23
2022-09-12T03:41:42.024Z,17.13
2022-09-12T03:44:08.902Z,17.88
2022-09-12T03:46:35.927Z,18.00
2022-09-12T03:49:02.611Z,18.45
2022-09-12T03:51:31.063Z,18.65
2022-09-12T03:53:57.764Z,18.67
2022-09-12T03:56:24.654Z,18.67
2022-09-12T03:58:51.346Z,18.75
2022-09-12T04:01:19.370Z,18.73
2022-09-12T04:03:48.508Z,17.23
2022-09-12T04:06:17.104Z,18.48
2022-09-12T04:08:48.248Z,17.70
2022-09-12T04:11:15.837Z,18.48
2022-09-12T04:13:43.989Z,18.10
2022-09-12T04:16:11.386Z,17.77
2022-09-12T04:18:38.330Z,19.23
2022-09-12T04:21:05.908Z,19.77
2022-09-12T04:23:33.085Z,19.10
2022-09-12T04:26:02.292Z,20.08
2022-09-12T04:28:29.767Z,20.25
2022-09-12T04:30:56.836Z,19.30
2022-09-12T04:33:23.641Z,19.13
2022-09-12T04:35:50.402Z,19.52
2022-09-12T04:38:17.046Z,19.45
2022-09-12T04:40:43.734Z,19.23
2022-09-12T04:43:14.557Z,19.75
2022-09-12T04:45:41.488Z,20.33
2022-09-12T04:48:08.234Z,18.63
2022-09-12T04:50:34.904Z,19.40
2022-09-12T04:53:01.692Z,20.08
2022-09-12T04:55:28.814Z,20.48
2022-09-12T04:57:55.451Z,20.50
2022-09-12T05:00:23.826Z,21.10
2022-09-12T05:02:50.521Z,20.08
2022-09-12T05:05:17.531Z,20.42
2022-09-12T05:07:44.283Z,21.13
2022-09-12T05:10:12.637Z,20.73
2022-09-12T05:12:39.649Z,20.35
2022-09-12T05:15:07.794Z,20.63
2022-09-12T05:17:35.835Z,21.20
2022-09-12T05:20:03.264Z,20.20
2022-09-12T05:22:30.334Z,21.55
2022-09-12T05:24:57.035Z,21.10
2022-09-12T05:27:23.729Z,21.02
2022-09-12T05:29:50.423Z,20.85
2022-09-12T05:32:17.169Z,19.77
2022-09-12T05:34:45.345Z,21.35
2022-09-12T05:37:13.055Z,20.80
2022-09-12T05:39:39.824Z,20.90
2022-09-12T05:42:06.638Z,21.83
2022-09-12T05:44:33.457Z,23.30
2022-09-12T05:47:00.145Z,22.13
2022-09-12T05:49:26.970Z,21.70
2022-09-12T05:51:55.067Z,22.25
2022-09-12T05:54:22.845Z,20.63
2022-09-12T05:56:49.582Z,22.38
2022-09-12T05:59:18.341Z,20.92
2022-09-12T06:01:45.677Z,21.17
2022-09-12T06:04:12.395Z,21.23
2022-09-12T06:06:41.822Z,20.52
2022-09-12T06:09:10.099Z,21.65
2022-09-12T06:11:40.258Z,20.95
2022-09-12T06:14:08.492Z,21.27
2022-09-12T06:16:35.349Z,21.90
2022-09-12T06:19:04.134Z,21.30
2022-09-12T06:21:35.262Z,22.55
2022-09-12T06:24:02.571Z,20.90
2022-09-12T06:26:30.906Z,21.85
2022-09-12T06:29:00.681Z,21.17
2022-09-12T06:31:29.321Z,21.83
2022-09-12T06:33:57.162Z,21.75
2022-09-12T06:36:25.577Z,22.42
2022-09-12T06:38:57.145Z,22.05
2022-09-12T06:41:24.389Z,22.88
2022-09-12T06:43:53.006Z,22.77
2022-09-12T06:46:20.265Z,22.70
2022-09-12T06:48:47.225Z,23.77
2022-09-12T06:51:15.570Z,23.60
2022-09-12T06:53:42.544Z,22.95
2022-09-12T06:56:11.538Z,23.63
2022-09-12T06:58:38.480Z,22.92
2022-09-12T07:01:08.308Z,24.40
2022-09-12T07:03:35.777Z,23.90
2022-09-12T07:06:04.125Z,22.23
2022-09-12T07:08:31.697Z,22.25
2022-09-12T07:10:59.155Z,21.40
2022-09-12T07:13:25.929Z,21.85
2022-09-12T07:15:52.646Z,21.85
2022-09-12T07:18:21.044Z,22.40
2022-09-12T07:20:47.723Z,21.33
2022-09-12T07:23:14.947Z,21.98
2022-09-12T07:25:41.911Z,22.25
2022-09-12T07:28:08.591Z,20.73
2022-09-12T07:30:37.262Z,20.38
2022-09-12T07:33:03.936Z,19.13
2022-09-12T07:35:34.225Z,19.88
2022-09-12T07:38:01.278Z,19.85
2022-09-12T07:40:28.013Z,19.38
2022-09-12T07:42:54.739Z,18.83
2022-09-12T07:45:21.381Z,18.30
2022-09-12T07:47:48.082Z,19.50
2022-09-12T07:50:14.871Z,19.05
2022-09-12T07:52:42.931Z,18.13
2022-09-12T07:55:09.758Z,18.70
2022-09-12T07:57:36.448Z,18.42
2022-09-12T08:00:05.600Z,18.95
2022-09-12T08:02:32.402Z,17.95
2022-09-12T08:04:59.426Z,17.52
2022-09-12T08:07:26.215Z,15.95
2022-09-12T08:09:54.418Z,16.92
2022-09-12T08:12:21.122Z,15.45
2022-09-12T08:14:48.314Z,15.55
2022-09-12T08:17:15.022Z,14.60
2022-09-12T08:19:41.907Z,16.20
2022-09-12T08:22:08.741Z,14.60
2022-09-12T08:24:35.550Z,15.10
2022-09-12T08:27:03.648Z,15.05
2022-09-12T08:29:30.378Z,14.70
2022-09-12T08:31:57.488Z,13.75
2022-09-12T08:34:24.849Z,13.52
2022-09-12T08:36:54.197Z,14.48
2022-09-12T08:39:21.833Z,13.27
2022-09-12T08:41:49.610Z,13.02
2022-09-12T08:44:37.716Z,14.00
2022-09-12T08:47:15.717Z,12.35
2022-09-12T08:49:51.500Z,12.80
2022-09-12T08:52:22.446Z,10.65
2022-09-12T08:54:50.081Z,11.30
2022-09-12T08:57:17.327Z,11.57
2022-09-12T08:59:46.573Z,11.13
2022-09-12T09:02:30.379Z,11.05
2022-09-12T09:05:01.605Z,10.68
2022-09-12T09:07:51.388Z,11.68
2022-09-12T09:10:21.955Z,10.02
2022-09-12T09:12:53.615Z,10.55
2022-09-12T09:15:33.766Z,10.40
2022-09-12T09:18:04.192Z,9.65
2022-09-12T09:20:34.245Z,8.27
2022-09-12T09:23:04.088Z,9.18
2022-09-12T09:25:40.079Z,8.63
2022-09-12T09:28:10.870Z,8.88
2022-09-12T09:30:39.764Z,8.90
2022-09-12T09:33:06.801Z,9.00
2022-09-12T09:35:40.486Z,8.13
2022-09-12T09:38:17.208Z,5.93
2022-09-12T09:40:48.715Z,5.97
2022-09-12T09:43:20.647Z,6.80
2022-09-12T09:45:49.527Z,6.95
2022-09-12T09:48:19.402Z,6.68
2022-09-12T09:50:48.013Z,7.05
2022-09-12T09:53:25.748Z,7.03
2022-09-12T09:55:54.160Z,6.10
2022-09-12T09:58:31.596Z,5.60
2022-09-12T10:01:03.971Z,5.72
2022-09-12T10:03:33.150Z,5.13
2022-09-12T10:06:02.258Z,4.70
2022-09-12T10:08:30.533Z,4.63
2022-09-12T10:11:00.438Z,5.07
2022-09-12T10:13:38.691Z,4.78
2022-09-12T10:16:18.910Z,4.60
2022-09-12T10:18:45.909Z,4.90
2022-09-12T10:21:23.629Z,4.38
2022-09-12T10:23:53.540Z,4.20
2022-09-12T10:26:21.784Z,5.07
2022-09-12T10:28:51.666Z,4.55
2022-09-12T10:31:29.188Z,5.13
2022-09-12T10:33:57.632Z,5.53
2022-09-12T10:36:24.949Z,5.20
2022-09-12T10:38:55.781Z,5.60
2022-09-12T10:41:22.652Z,4.43
2022-09-12T10:43:49.917Z,5.57
2022-09-12T10:46:29.406Z,4.97
2022-09-12T10:49:18.071Z,3.58
2022-09-12T10:51:44.868Z,4.05
2022-09-12T10:54:13.213Z,4.35
2022-09-12T10:56:44.301Z,5.20
2022-09-12T10:59:20.359Z,4.10
2022-09-12T11:01:49.995Z,4.35
2022-09-12T11:04:24.918Z,4.10
2022-09-12T11:07:01.742Z,4.25
2022-09-12T11:09:32.776Z,3.50
2022-09-12T11:12:06.122Z,4.30
2022-09-12T11:14:42.060Z,3.80
2022-09-12T11:17:18.773Z,4.05
2022-09-12T11:19:56.189Z,5.22
2022-09-12T11:22:35.425Z,3.35
2022-09-12T11:25:13.064Z,2.97
2022-09-12T11:28:00.746Z,3.00
2022-09-12T11:30:34.182Z,2.72
2022-09-12T11:33:10.990Z,3.22
2022-09-12T11:35:44.614Z,3.22
2022-09-12T11:38:28.974Z,3.28
2022-09-12T11:41:00.437Z,3.28
2022-09-12T11:43:33.403Z,3.15
2022-09-12T11:46:07.804Z,4.05
2022-09-12T11:48:44.859Z,3.83
2022-09-12T11:51:18.418Z,4.63
2022-09-12T11:53:48.844Z,4.00
2022-09-12T11:56:17.914Z,3.80
2022-09-12T11:58:49.315Z,2.95
2022-09-12T12:01:20.904Z,3.58
2022-09-12T12:03:49.717Z,4.18
2022-09-12T12:06:20.942Z,3.58
2022-09-12T12:08:48.945Z,4.20
2022-09-12T12:11:24.141Z,3.45
2022-09-12T12:16:21.376Z,3.20
2022-09-12T12:18:54.310Z,2.88
2022-09-12T12:21:32.557Z,2.58
2022-09-12T12:24:09.977Z,2.88
2022-09-12T12:26:58.329Z,2.83
2022-09-12T12:29:43.535Z,2.42
2022-09-12T12:32:24.661Z,3.28
2022-09-12T12:35:02.466Z,2.72
2022-09-12T12:37:55.908Z,2.50
2022-09-12T12:40:26.749Z,2.55
2022-09-12T12:43:26.839Z,3.20
2022-09-12T12:46:12.392Z,2.17
2022-09-12T12:49:07.732Z,2.90
2022-09-12T12:51:45.921Z,2.63
2022-09-12T12:54:53.077Z,2.67
2022-09-12T12:57:48.753Z,3.45
2022-09-12T13:00:29.852Z,2.70
2022-09-12T13:02:59.747Z,2.85
2022-09-12T13:05:27.882Z,2.30
2022-09-12T13:07:57.887Z,3.22
2022-09-12T13:10:28.862Z,2.30
2022-09-12T13:12:56.706Z,2.95
2022-09-12T13:15:47.230Z,2.63
2022-09-12T13:18:18.473Z,1.90
2022-09-12T13:20:47.603Z,2.05
2022-09-12T13:23:23.988Z,2.67
2022-09-12T13:25:55.174Z,2.35
2022-09-12T13:28:21.891Z,2.40
2022-09-12T13:30:56.472Z,1.90
2022-09-12T13:33:33.329Z,2.10
2022-09-12T13:36:25.722Z,2.00
2022-09-12T13:39:02.972Z,2.08
2022-09-12T13:41:39.640Z,1.73
2022-09-12T13:44:09.841Z,1.50
2022-09-12T13:46:36.819Z,1.52
2022-09-12T13:49:09.596Z,1.50
2022-09-12T13:51:36.398Z,1.60
2022-09-12T13:54:05.076Z,1.50
2022-09-12T13:56:31.829Z,1.35
2022-09-12T13:59:00.405Z,1.45
2022-09-12T14:01:38.724Z,1.60
2022-09-12T14:04:33.733Z,1.67
2022-09-12T14:07:02.655Z,1.80
2022-09-12T14:09:34.955Z,1.70
2022-09-12T14:12:03.163Z,1.30
2022-09-12T14:14:36.089Z,1.10
2022-09-12T14:17:16.330Z,1.20
2022-09-12T14:19:43.472Z,1.40
2022-09-12T14:22:17.999Z,1.50
2022-09-12T14:24:50.122Z,1.30
2022-09-12T14:27:18.800Z,0.90
2022-09-12T14:29:45.775Z,1.30
2022-09-12T14:32:21.459Z,1.10
2022-09-12T14:35:07.073Z,1.33
2022-09-12T14:37:33.811Z,1.25
2022-09-12T14:40:02.776Z,1.40
2022-09-12T14:42:31.393Z,1.40
2022-09-12T14:45:00.731Z,1.10
2022-09-12T14:47:30.256Z,1.38
2022-09-12T14:49:56.986Z,1.05
2022-09-12T14:52:26.373Z,1.05
2022-09-12T14:54:56.930Z,1.10
2022-09-12T14:57:39.031Z,1.20
2022-09-12T15:00:14.709Z,1.17
2022-09-12T15:02:41.895Z,1.00
2022-09-12T15:05:24.547Z,1.30
2022-09-12T15:07:54.386Z,0.93
2022-09-12T15:10:25.226Z,1.02
2022-09-12T15:13:14.155Z,1.10
2022-09-12T15:15:42.435Z,0.90
2022-09-12T15:18:09.656Z,1.10
2022-09-12T15:20:37.879Z,0.80
2022-09-12T15:23:05.082Z,0.98
2022-09-12T15:25:32.319Z,0.90
2022-09-12T15:27:59.073Z,0.82
2022-09-12T15:30:27.128Z,1.00
2022-09-12T15:32:54.954Z,1.10
2022-09-12T15:35:23.681Z,1.20
2022-09-12T15:37:50.486Z,1.10
2022-09-12T15:40:17.904Z,1.05
2022-09-12T15:43:03.342Z,1.20
2022-09-12T15:46:31.027Z,1.05
2022-09-12T15:49:56.286Z,1.02
2022-09-12T15:53:21.483Z,1.35
2022-09-12T15:56:46.933Z,1.00
2022-09-12T16:00:12.671Z,0.90
2022-09-12T16:03:39.236Z,1.10
2022-09-12T16:07:04.909Z,1.10
2022-09-12T16:10:30.433Z,1.10
2022-09-12T16:13:56.877Z,1.10
2022-09-12T16:17:22.119Z,1.40
2022-09-12T16:20:51.652Z,1.50
2022-09-12T16:24:16.887Z,1.08
2022-09-12T16:27:42.207Z,1.30
2022-09-12T16:31:08.729Z,1.65
2022-09-12T16:34:33.977Z,1.45
2022-09-12T16:38:00.849Z,1.20
2022-09-12T16:41:26.397Z,1.20
2022-09-12T16:44:53.295Z,1.23
2022-09-12T16:48:18.498Z,1.50
2022-09-12T16:51:47.474Z,1.20
2022-09-12T16:55:14.458Z,1.20
2022-09-12T16:58:42.071Z,1.10
2022-09-12T17:02:09.857Z,1.23
2022-09-12T17:05:35.346Z,1.15
2022-09-12T17:09:01.336Z,1.30
2022-09-12T17:12:29.114Z,1.30
2022-09-12T17:15:54.438Z,1.20
2022-09-12T17:19:20.466Z,1.30
2022-09-12T17:22:45.743Z,1.40
2022-09-12T17:26:11.190Z,1.20
2022-09-12T17:29:38.745Z,1.30
2022-09-12T17:33:03.995Z,1.40
2022-09-12T17:36:32.304Z,1.20
2022-09-12T17:39:57.813Z,1.10
2022-09-12T17:43:23.096Z,1.25
2022-09-12T17:46:55.054Z,1.27
2022-09-12T17:50:32.448Z,1.15
2022-09-12T17:53:59.779Z,1.20
2022-09-12T17:57:25.572Z,1.20
2022-09-12T18:01:09.388Z,1.30
2022-09-12T18:04:36.046Z,1.40
2022-09-12T18:08:01.653Z,1.17
2022-09-12T18:11:26.993Z,1.60
2022-09-12T18:14:52.231Z,1.38
2022-09-12T18:18:17.460Z,1.58
2022-09-12T18:21:49.740Z,1.65
2022-09-12T18:25:15.094Z,1.40
2022-09-12T18:28:41.156Z,1.75
2022-09-12T18:32:09.295Z,1.70
2022-09-12T18:35:34.510Z,1.77
2022-09-12T18:39:01.114Z,2.13
2022-09-12T18:42:26.359Z,1.65
2022-09-12T18:45:51.657Z,1.70
2022-09-12T18:49:16.871Z,2.00
2022-09-12T18:52:42.110Z,2.25
2022-09-12T18:56:09.601Z,2.28
2022-09-12T18:59:34.857Z,2.35
2022-09-12T19:03:00.537Z,2.65
2022-09-12T19:06:27.819Z,2.88
2022-09-12T19:13:19.706Z,2.85
2022-09-12T19:16:44.955Z,3.03
2022-09-12T19:20:10.684Z,2.90
2022-09-12T19:23:36.390Z,2.50
2022-09-12T19:27:02.609Z,2.70
2022-09-12T19:30:29.314Z,2.88
2022-09-12T19:33:58.486Z,2.90
2022-09-12T19:37:24.174Z,2.63
2022-09-12T19:40:55.783Z,2.85
2022-09-12T19:44:21.010Z,2.83
2022-09-12T19:47:47.563Z,2.63
2022-09-12T19:51:12.953Z,2.88
2022-09-12T19:54:38.949Z,2.80
2022-09-12T19:58:06.005Z,3.10
2022-09-12T20:01:31.581Z,3.50
2022-09-12T20:04:58.336Z,2.95
2022-09-12T20:08:23.596Z,3.35
2022-09-12T20:11:49.398Z,3.30
2022-09-12T20:15:14.636Z,3.00
2022-09-12T20:18:39.897Z,2.85
2022-09-12T20:22:10.701Z,3.50
2022-09-12T20:25:35.916Z,3.05
2022-09-12T20:29:01.358Z,3.58
2022-09-12T20:32:28.943Z,3.15
2022-09-12T20:35:54.101Z,3.67
2022-09-12T20:39:21.522Z,3.35
2022-09-12T20:42:46.982Z,4.07
2022-09-12T20:46:12.295Z,3.67
2022-09-12T20:49:37.643Z,3.80
2022-09-12T20:53:03.045Z,3.60
2022-09-12T20:56:29.871Z,3.45
2022-09-12T20:59:55.109Z,3.85
2022-09-12T21:03:20.297Z,3.72
2022-09-12T21:06:45.536Z,3.40
2022-09-12T21:10:10.823Z,3.50
2022-09-12T21:13:37.656Z,4.00
2022-09-12T21:17:05.293Z,3.95
2022-09-12T21:20:30.478Z,3.33
2022-09-12T21:23:57.776Z,3.50
2022-09-12T21:30:50.006Z,3.47
2022-09-12T21:34:15.932Z,3.42
2022-09-12T21:37:41.338Z,3.40
2022-09-12T21:41:07.594Z,3.42
2022-09-12T21:44:32.894Z,3.75
2022-09-12T21:47:59.477Z,4.03
2022-09-12T21:51:24.808Z,4.05
2022-09-12T21:54:50.000Z,3.10
2022-09-12T21:58:15.213Z,3.65
2022-09-12T22:01:40.734Z,3.78
2022-09-12T22:05:07.927Z,3.83
2022-09-12T22:08:33.560Z,4.70
2022-09-12T22:11:59.234Z,4.68
2022-09-12T22:15:41.394Z,3.88
2022-09-12T22:19:08.501Z,4.40
2022-09-12T22:22:53.345Z,3.95
2022-09-12T22:26:18.593Z,3.95
2022-09-12T22:29:46.514Z,4.47
2022-09-12T22:33:11.698Z,4.47
2022-09-12T22:36:39.137Z,5.38
2022-09-12T22:40:05.335Z,5.13
2022-09-12T22:43:31.457Z,4.50
2022-09-12T22:46:57.005Z,4.50
2022-09-12T22:50:22.695Z,5.40
2022-09-12T22:53:51.494Z,4.80
2022-09-12T22:57:16.763Z,5.15
2022-09-12T23:00:45.811Z,5.93
2022-09-12T23:04:11.028Z,6.07
2022-09-12T23:07:36.331Z,5.75
2022-09-12T23:11:04.519Z,6.38
2022-09-12T23:14:29.837Z,7.38
2022-09-12T23:17:55.038Z,8.30
2022-09-12T23:21:20.704Z,6.90
2022-09-12T23:24:45.988Z,7.72
2022-09-12T23:28:14.624Z,7.72
2022-09-12T23:31:39.907Z,7.93
2022-09-12T23:35:05.631Z,8.88
2022-09-12T23:38:30.895Z,9.57
2022-09-12T23:41:56.247Z,9.05
2022-09-12T23:45:22.841Z,9.35
2022-09-12T23:48:48.356Z,8.50
2022-09-12T23:52:13.663Z,10.05
2022-09-12T23:55:39.043Z,9.75
2022-09-12T23:59:04.254Z,8.93
